Time;durP1;ratioP1;P1;durP2;ratioP2;P2;SDS_P1;SDS_P2;PMS_P1;PMS_P2;Temp;Humidity;BMP_temperature;BMP_pressure;BME280_temperature;BME280_humidity;BME280_pressure;Samples;Min_cycle;Max_cycle;Signal;HPM_P1;HPM_P2
2021/03/23 00:00:36;;;;;;;17.90;9.60;;;;;;;1.05;79.85;96307.09;5072805;28;20269;-76
2021/03/23 00:03:06;;;;;;;18.10;9.40;;;;;;;1.04;80.13;96303.72;5072700;28;20200;-77
2021/03/23 00:05:32;;;;;;;17.87;10.33;;;;;;;1.02;79.97;96302.97;5055518;28;20280;-76
2021/03/23 00:07:57;;;;;;;17.93;9.87;;;;;;;1.05;80.18;96302.81;5055687;28;20267;-77
2021/03/23 00:10:25;;;;;;;16.87;9.60;;;;;;;1.08;79.93;96312.09;5073704;28;20245;-76
2021/03/23 00:12:50;;;;;;;20.07;10.70;;;;;;;1.04;79.86;96305.44;5072232;28;20213;-76
2021/03/23 00:15:15;;;;;;;18.53;9.37;;;;;;;1.03;80.19;96307.16;5073460;28;20180;-77
2021/03/23 00:17:41;;;;;;;19.80;9.47;;;;;;;1.03;80.10;96306.34;5055454;28;20187;-77
2021/03/23 00:20:09;;;;;;;13.90;8.97;;;;;;;1.03;79.97;96311.47;5072392;28;20177;-76
2021/03/23 00:22:35;;;;;;;18.47;9.57;;;;;;;1.01;80.25;96310.72;5072283;28;20234;-77
2021/03/23 00:25:02;;;;;;;14.87;9.43;;;;;;;1.02;80.23;96317.47;5055311;28;20187;-76
2021/03/23 00:27:27;;;;;;;17.67;10.13;;;;;;;1.04;80.08;96315.69;5071976;28;20173;-77
2021/03/23 00:29:53;;;;;;;16.97;10.60;;;;;;;1.01;80.23;96308.97;5072356;28;20215;-76
2021/03/23 00:32:18;;;;;;;20.73;12.10;;;;;;;1.06;80.30;96309.59;5072104;28;20197;-76
2021/03/23 00:34:43;;;;;;;17.57;10.37;;;;;;;1.07;80.04;96311.25;5071934;28;20177;-77
2021/03/23 00:37:09;;;;;;;17.33;10.80;;;;;;;1.09;80.04;96313.75;5055693;28;20264;-77
2021/03/23 00:39:36;;;;;;;16.90;10.63;;;;;;;1.07;80.48;96313.81;5055619;28;20653;-76
2021/03/23 00:42:01;;;;;;;17.53;11.10;;;;;;;1.08;80.21;96312.09;5072086;28;20564;-76
2021/03/23 00:44:27;;;;;;;23.97;11.23;;;;;;;1.05;80.08;96312.22;5071800;28;20173;-77
2021/03/23 00:46:52;;;;;;;20.23;11.87;;;;;;;1.05;80.49;96312.22;5071884;28;20243;-77
2021/03/23 00:49:18;;;;;;;22.10;12.00;;;;;;;1.13;80.06;96317.81;5071778;28;20645;-77
2021/03/23 00:51:43;;;;;;;23.13;11.33;;;;;;;1.09;80.38;96313.75;5071739;28;20220;-76
2021/03/23 00:54:08;;;;;;;22.10;12.43;;;;;;;1.06;80.73;96308.75;5071462;28;20205;-77
2021/03/23 00:56:34;;;;;;;23.33;13.57;;;;;;;1.00;81.03;96309.06;5072995;28;20235;-76
2021/03/23 00:58:59;;;;;;;21.80;13.77;;;;;;;0.99;81.59;96307.41;5073756;28;20751;-77
2021/03/23 01:01:24;;;;;;;26.50;14.47;;;;;;;0.95;81.84;96310.97;5074522;28;20184;-77
2021/03/23 01:03:49;;;;;;;24.83;13.27;;;;;;;0.89;81.77;96311.28;5075392;28;20185;-77
2021/03/23 01:06:15;;;;;;;25.77;14.17;;;;;;;0.82;82.19;96314.13;5056261;28;20234;-77
2021/03/23 01:08:40;;;;;;;25.00;14.37;;;;;;;0.82;82.14;96308.16;5074240;28;20176;-77
2021/03/23 01:11:05;;;;;;;22.90;14.27;;;;;;;0.84;82.02;96304.63;5073380;28;20181;-77
2021/03/23 01:13:31;;;;;;;26.13;15.03;;;;;;;0.84;82.29;96314.88;5072860;28;20304;-77
2021/03/23 01:15:56;;;;;;;27.23;15.20;;;;;;;0.85;82.81;96303.75;5073936;28;20177;-77
2021/03/23 01:18:22;;;;;;;22.90;14.20;;;;;;;0.84;82.27;96309.75;5072496;28;20185;-77
2021/03/23 01:20:47;;;;;;;25.63;14.43;;;;;;;0.85;82.66;96306.28;5055775;28;20188;-77
2021/03/23 01:23:13;;;;;;;27.30;15.07;;;;;;;0.87;82.73;96310.50;5073410;28;20200;-77
2021/03/23 01:25:38;;;;;;;25.90;14.83;;;;;;;0.84;82.64;96304.63;5073634;28;20177;-77
2021/03/23 01:28:03;;;;;;;25.23;14.83;;;;;;;0.87;82.36;96313.06;5073788;28;20174;-77
2021/03/23 01:30:29;;;;;;;26.90;15.43;;;;;;;0.87;82.86;96308.78;5090648;28;20196;-77
2021/03/23 01:32:55;;;;;;;30.37;15.60;;;;;;;0.88;83.06;96310.44;5075839;28;20663;-77
2021/03/23 01:35:23;;;;;;;26.83;14.73;;;;;;;0.88;82.67;96309.59;5074206;28;20173;-77
2021/03/23 01:37:48;;;;;;;25.37;14.23;;;;;;;0.88;82.90;96314.72;5056668;28;20466;-77
2021/03/23 01:40:15;;;;;;;24.10;15.60;;;;;;;0.88;82.96;96310.44;5073634;28;20256;-77
2021/03/23 01:42:52;;;;;;;27.93;14.67;;;;;;;0.89;82.95;96301.06;5075187;28;20185;-77
2021/03/23 01:45:19;;;;;;;28.63;14.83;;;;;;;0.89;82.91;96306.16;5073355;28;20173;-77
2021/03/23 01:47:45;;;;;;;21.77;13.63;;;;;;;0.89;82.87;96303.63;5073660;28;20566;-77
2021/03/23 01:50:11;;;;;;;24.87;14.40;;;;;;;0.90;83.00;96302.72;5073635;28;20196;-76
2021/03/23 01:52:37;;;;;;;22.83;14.67;;;;;;;0.91;83.16;96299.25;5072892;28;20266;-77
2021/03/23 01:55:05;;;;;;;26.77;15.27;;;;;;;0.91;83.22;96304.38;5072821;28;20660;-77
2021/03/23 01:57:32;;;;;;;24.13;14.80;;;;;;;0.91;82.90;96296.69;5053225;28;20181;-77
2021/03/23 01:59:58;;;;;;;23.63;14.50;;;;;;;0.90;83.17;96297.59;5070079;28;20260;-77
2021/03/23 02:02:27;;;;;;;27.77;14.40;;;;;;;0.90;82.97;96293.31;5069410;28;20190;-77
2021/03/23 02:04:52;;;;;;;25.43;14.60;;;;;;;0.93;83.02;96297.44;5052550;28;20174;-77
2021/03/23 02:07:18;;;;;;;29.93;14.50;;;;;;;0.91;83.15;96302.63;5069278;28;20227;-77
2021/03/23 02:09:43;;;;;;;27.63;15.30;;;;;;;0.90;83.05;96297.59;5068793;28;20178;-77
2021/03/23 02:12:14;;;;;;;28.10;14.37;;;;;;;0.90;83.19;96297.59;5035748;28;20263;-77
2021/03/23 02:14:42;;;;;;;23.00;13.17;;;;;;;0.91;83.34;96289.03;5053828;28;20174;-77
2021/03/23 02:17:21;;;;;;;20.33;12.73;;;;;;;0.91;83.27;96294.13;5069815;28;20178;-77
2021/03/23 02:19:46;;;;;;;27.20;14.00;;;;;;;0.92;83.45;96293.22;5054624;28;20173;-77
2021/03/23 02:22:34;;;;;;;25.80;13.43;;;;;;;0.92;83.23;96295.78;5070629;28;20189;-77
2021/03/23 02:25:01;;;;;;;23.50;14.07;;;;;;;0.91;83.10;96286.47;5053351;28;20608;-77
2021/03/23 02:27:27;;;;;;;28.40;15.13;;;;;;;0.91;83.34;96286.47;5054177;28;20576;-77
2021/03/23 02:29:55;;;;;;;25.50;15.13;;;;;;;0.91;83.27;96291.59;5054033;28;20177;-77
2021/03/23 02:32:20;;;;;;;26.43;16.23;;;;;;;0.89;83.29;96291.66;5070303;28;20194;-77
2021/03/23 02:34:46;;;;;;;27.07;15.53;;;;;;;0.89;83.16;96290.84;5070828;28;20253;-76
2021/03/23 02:37:11;;;;;;;27.57;14.17;;;;;;;0.88;83.31;96294.25;5054980;28;20173;-77
2021/03/23 02:39:37;;;;;;;27.63;16.83;;;;;;;0.88;83.47;96294.25;5054451;28;20192;-77
2021/03/23 02:42:04;;;;;;;29.63;16.67;;;;;;;0.87;83.35;96292.59;5053587;28;20203;-77
2021/03/23 02:44:37;;;;;;;24.37;15.27;;;;;;;0.85;83.49;96293.50;5053367;28;20201;-77
2021/03/23 02:47:03;;;;;;;27.80;14.90;;;;;;;0.85;83.33;96293.50;5053351;28;20271;-77
2021/03/23 02:49:28;;;;;;;28.17;15.40;;;;;;;0.85;83.33;96290.13;5056413;28;20174;-77
2021/03/23 02:51:53;;;;;;;23.33;14.97;;;;;;;0.85;83.19;96290.94;5058597;28;20271;-77
2021/03/23 02:54:19;;;;;;;25.83;15.10;;;;;;;0.85;83.33;96290.13;5074925;28;20266;-77
2021/03/23 02:56:44;;;;;;;24.27;15.00;;;;;;;0.85;83.38;96288.38;5075750;28;20174;-77
2021/03/23 02:59:09;;;;;;;24.97;15.50;;;;;;;0.84;83.45;96283.34;5059465;28;20189;-77
2021/03/23 03:01:34;;;;;;;30.50;15.13;;;;;;;0.84;83.37;96280.78;5058704;28;20221;-77
2021/03/23 03:04:00;;;;;;;25.43;15.17;;;;;;;0.85;83.27;96279.91;5075082;28;20229;-77
2021/03/23 03:06:25;;;;;;;26.33;15.13;;;;;;;0.86;83.16;96279.00;5058363;28;20182;-77
2021/03/23 03:08:50;;;;;;;23.20;14.70;;;;;;;0.85;83.23;96275.59;5059662;28;20534;-78
2021/03/23 03:11:16;;;;;;;23.30;15.87;;;;;;;0.86;83.33;96281.56;5058545;28;20185;-77
2021/03/23 03:13:42;;;;;;;24.67;14.20;;;;;;;0.84;83.22;96278.25;5058942;28;20244;-77
2021/03/23 03:16:07;;;;;;;26.47;14.90;;;;;;;0.81;83.42;96279.22;5042164;28;20220;-77
2021/03/23 03:18:32;;;;;;;25.60;14.47;;;;;;;0.82;83.10;96277.50;5075253;28;20188;-77
2021/03/23 03:20:59;;;;;;;27.10;14.67;;;;;;;0.82;83.37;96280.88;5074570;28;20660;-78
2021/03/23 03:23:24;;;;;;;29.83;16.40;;;;;;;0.85;83.29;96279.91;5059809;28;20561;-77
2021/03/23 03:25:50;;;;;;;26.00;14.80;;;;;;;0.84;83.17;96279.06;5058359;28;20170;-77
2021/03/23 03:28:16;;;;;;;27.10;14.37;;;;;;;0.84;83.30;96279.06;5058864;28;20207;-77
2021/03/23 03:30:42;;;;;;;26.87;15.43;;;;;;;0.85;83.11;96277.34;5057467;28;20177;-77
2021/03/23 03:33:10;;;;;;;26.87;15.07;;;;;;;0.84;83.30;96281.63;5058751;28;20218;-77
2021/03/23 03:35:38;;;;;;;26.77;15.47;;;;;;;0.83;83.09;96277.41;5059547;28;20515;-77
2021/03/23 03:38:04;;;;;;;25.43;14.93;;;;;;;0.82;83.35;96274.94;5058578;28;20185;-77
2021/03/23 03:40:35;;;;;;;26.03;15.73;;;;;;;0.81;83.41;96281.78;5075019;28;20212;-77
2021/03/23 03:43:01;;;;;;;29.97;15.97;;;;;;;0.80;83.40;96276.75;5058277;28;20247;-77
2021/03/23 03:45:27;;;;;;;27.80;15.07;;;;;;;0.79;83.29;96273.31;5041485;28;20654;-77
2021/03/23 03:47:53;;;;;;;27.77;15.60;;;;;;;0.78;83.39;96274.22;5058354;28;20181;-77
2021/03/23 03:50:20;;;;;;;26.03;16.03;;;;;;;0.78;82.93;96274.22;5058322;28;20550;-77
2021/03/23 03:52:45;;;;;;;27.30;16.03;;;;;;;0.77;83.25;96277.69;5074462;28;20217;-77
2021/03/23 03:55:14;;;;;;;28.00;16.03;;;;;;;0.76;83.50;96273.47;5040404;28;20707;-77
2021/03/23 03:57:39;;;;;;;29.67;16.93;;;;;;;0.75;83.36;96279.50;5073793;28;20190;-77
2021/03/23 04:00:06;;;;;;;33.73;16.97;;;;;;;0.75;83.50;96274.38;5041285;28;20193;-77
2021/03/23 04:02:31;;;;;;;27.90;15.57;;;;;;;0.75;83.56;96276.94;5057450;28;20198;-77
2021/03/23 04:04:56;;;;;;;31.43;17.13;;;;;;;0.75;83.48;96279.50;5073937;28;20182;-77
2021/03/23 04:07:22;;;;;;;29.03;16.03;;;;;;;0.75;83.64;96287.16;5073880;28;20182;-77
2021/03/23 04:09:47;;;;;;;28.47;16.17;;;;;;;0.74;83.76;96275.28;5074599;28;20178;-77
2021/03/23 04:12:13;;;;;;;30.33;16.90;;;;;;;0.75;83.53;96276.94;5074233;28;20216;-77
2021/03/23 04:14:38;;;;;;;25.93;15.40;;;;;;;0.75;83.56;96279.50;5059092;28;20567;-77
2021/03/23 04:17:03;;;;;;;27.53;16.00;;;;;;;0.74;83.55;96279.56;5073471;28;20182;-78
2021/03/23 04:19:29;;;;;;;31.47;16.17;;;;;;;0.73;83.59;96286.41;5073731;28;20189;-76
2021/03/23 04:21:54;;;;;;;27.67;15.07;;;;;;;0.74;83.69;96282.94;5073631;28;20190;-77
2021/03/23 04:24:20;;;;;;;24.50;14.90;;;;;;;0.77;83.24;96290.47;5057316;28;20170;-77
2021/03/23 04:26:45;;;;;;;28.37;15.93;;;;;;;0.78;83.59;96286.19;5057038;28;20530;-77
2021/03/23 04:29:10;;;;;;;29.53;17.37;;;;;;;0.74;83.38;96290.63;5057066;28;20178;-77
2021/03/23 04:31:39;;;;;;;32.27;17.40;;;;;;;0.73;83.21;96296.63;5073486;28;20572;-77
2021/03/23 04:34:06;;;;;;;27.47;14.87;;;;;;;0.76;83.66;96296.47;5056740;28;20198;-77
2021/03/23 04:36:32;;;;;;;26.97;15.57;;;;;;;0.77;83.49;96294.75;5056870;28;20515;-77
2021/03/23 04:38:58;;;;;;;27.37;14.87;;;;;;;0.76;83.32;96301.59;5056758;28;20228;-77
2021/03/23 04:41:23;;;;;;;28.17;17.10;;;;;;;0.75;83.46;96306.78;5056841;28;20606;-77
2021/03/23 04:43:50;;;;;;;33.33;16.90;;;;;;;0.75;83.44;96299.94;5057098;28;20634;-77
2021/03/23 04:46:21;;;;;;;31.77;16.60;;;;;;;0.73;83.52;96306.88;5073374;28;20709;-77
2021/03/23 04:48:46;;;;;;;34.57;17.27;;;;;;;0.73;83.37;96306.03;5073519;28;20205;-77
2021/03/23 04:51:12;;;;;;;29.33;17.73;;;;;;;0.73;83.44;96306.88;5056888;28;20189;-77
2021/03/23 04:53:40;;;;;;;25.47;16.30;;;;;;;0.74;83.56;96312.81;5056754;28;20262;-77
2021/03/23 04:56:07;;;;;;;28.60;16.73;;;;;;;0.73;83.74;96311.97;5056460;28;20226;-77
2021/03/23 04:58:33;;;;;;;28.67;16.87;;;;;;;0.72;83.51;96305.22;5058453;28;20174;-78
2021/03/23 05:00:59;;;;;;;28.17;15.53;;;;;;;0.74;83.54;96311.06;5039679;28;20563;-77
2021/03/23 05:03:34;;;;;;;32.33;17.13;;;;;;;0.73;83.48;96309.41;5073428;28;20214;-77
2021/03/23 05:06:07;;;;;;;26.57;16.10;;;;;;;0.72;83.47;96305.22;5040034;28;20185;-77
2021/03/23 05:08:34;;;;;;;29.93;16.63;;;;;;;0.72;83.65;96317.16;5056522;28;20181;-77
2021/03/23 05:10:59;;;;;;;27.57;16.10;;;;;;;0.71;83.65;96313.78;5073010;28;20174;-77
2021/03/23 05:13:25;;;;;;;26.03;15.30;;;;;;;0.73;83.27;96308.59;5056573;28;20214;-77
2021/03/23 05:15:50;;;;;;;28.03;15.83;;;;;;;0.73;83.40;96311.97;5039429;28;20189;-77
2021/03/23 05:18:16;;;;;;;30.13;14.97;;;;;;;0.74;83.25;96310.25;5056721;28;20206;-77
2021/03/23 05:20:42;;;;;;;28.87;15.67;;;;;;;0.76;83.58;96316.13;5073551;28;20186;-77
2021/03/23 05:23:08;;;;;;;25.60;16.27;;;;;;;0.76;83.30;96321.22;5076925;28;20228;-77
2021/03/23 05:25:33;;;;;;;26.00;14.97;;;;;;;0.75;83.07;96317.84;5078428;28;20177;-76
2021/03/23 05:27:58;;;;;;;31.07;16.80;;;;;;;0.75;82.89;96317.84;5061658;28;20184;-76
2021/03/23 05:30:24;;;;;;;27.13;16.23;;;;;;;0.75;83.02;96317.84;5077782;28;20208;-76
2021/03/23 05:32:49;;;;;;;30.60;17.43;;;;;;;0.75;83.49;96322.97;5077016;28;20237;-77
2021/03/23 05:35:16;;;;;;;31.23;17.63;;;;;;;0.75;83.24;96324.69;5060599;28;20173;-77
2021/03/23 05:37:41;;;;;;;30.20;16.47;;;;;;;0.78;83.44;96319.41;5076725;28;20184;-76
2021/03/23 05:40:08;;;;;;;29.87;16.47;;;;;;;0.79;83.29;96321.91;5075954;28;20193;-76
2021/03/23 05:42:37;;;;;;;27.23;16.53;;;;;;;0.81;83.22;96335.47;5043047;28;20194;-76
2021/03/23 05:45:19;;;;;;;29.50;17.03;;;;;;;0.82;83.28;96326.91;5060126;28;20170;-77
2021/03/23 05:48:03;;;;;;;29.87;17.77;;;;;;;0.84;83.14;96330.22;5075318;28;20170;-77
2021/03/23 05:50:30;;;;;;;34.43;17.93;;;;;;;0.84;83.17;96335.31;5071382;28;20180;-77
2021/03/23 05:53:02;;;;;;;33.47;19.67;;;;;;;0.89;83.26;96337.69;5071267;28;20208;-76
2021/03/23 05:55:30;;;;;;;28.63;18.30;;;;;;;0.90;83.21;96338.50;5071548;28;20174;-76
2021/03/23 05:57:56;;;;;;;29.57;17.23;;;;;;;0.93;83.19;96339.19;5056401;28;20196;-76
2021/03/23 06:00:33;;;;;;;31.00;18.53;;;;;;;0.95;83.04;96339.13;5071724;28;20650;-76
2021/03/23 06:03:03;;;;;;;28.27;16.87;;;;;;;0.97;83.21;96342.44;5055404;28;20182;-76
2021/03/23 06:05:54;;;;;;;30.87;17.60;;;;;;;1.01;83.01;96343.97;5073698;28;20204;-77
2021/03/23 06:08:33;;;;;;;32.10;17.23;;;;;;;1.04;83.01;96342.06;5012085;28;20289;-77
2021/03/23 06:11:23;;;;;;;33.27;18.70;;;;;;;1.07;82.62;96348.81;4985437;28;20658;-77
2021/03/23 06:13:54;;;;;;;41.43;24.20;;;;;;;1.12;82.43;96349.41;5009070;28;20238;-76
2021/03/23 06:16:48;;;;;;;40.07;22.60;;;;;;;1.18;82.14;96346.56;4977730;28;20251;-77
2021/03/23 06:19:44;;;;;;;55.30;27.97;;;;;;;1.22;82.41;96348.06;4994929;28;20278;-77
2021/03/23 06:22:53;;;;;;;54.13;28.03;;;;;;;1.25;82.60;96367.59;4989999;28;20294;-76
2021/03/23 06:25:26;;;;;;;42.73;22.90;;;;;;;1.31;82.47;96363.00;5010382;28;20329;-76
2021/03/23 06:27:56;;;;;;;111.33;57.33;;;;;;;1.35;82.12;96359.41;5001421;28;20258;-77
2021/03/23 06:30:36;;;;;;;102.10;47.53;;;;;;;1.39;81.92;96368.59;5001530;28;20178;-76
2021/03/23 06:33:03;;;;;;;103.47;45.87;;;;;;;1.42;82.04;96372.75;5005209;28;20676;-77
2021/03/23 06:35:34;;;;;;;61.73;30.57;;;;;;;1.49;81.91;96368.16;5011516;28;20187;-77
2021/03/23 06:38:01;;;;;;;67.43;32.33;;;;;;;1.58;81.60;96368.56;5010476;28;20820;-76
2021/03/23 06:40:30;;;;;;;163.93;77.63;;;;;;;1.63;81.40;96370.91;4976496;28;20191;-75
2021/03/23 06:42:57;;;;;;;104.70;46.00;;;;;;;1.61;81.09;96370.97;4994519;28;20573;-76
2021/03/23 06:45:34;;;;;;;85.73;40.23;;;;;;;1.68;80.87;96376.66;5028720;28;20198;-78
2021/03/23 06:48:24;;;;;;;82.43;38.90;;;;;;;1.76;80.71;96371.97;5052977;28;20264;-76
2021/03/23 06:50:50;;;;;;;74.83;33.33;;;;;;;1.78;80.39;96385.53;5053695;28;20174;-76
2021/03/23 06:53:21;;;;;;;49.13;26.53;;;;;;;1.84;80.47;96380.09;5069281;28;20205;-76
2021/03/23 06:55:47;;;;;;;40.60;20.87;;;;;;;1.92;80.86;96388.25;5066477;28;20208;-76
2021/03/23 06:58:34;;;;;;;36.67;19.93;;;;;;;1.98;80.27;96377.72;5036568;28;20257;-76
2021/03/23 07:01:25;;;;;;;34.40;18.10;;;;;;;2.12;80.17;96387.28;5060774;28;20552;-77
2021/03/23 07:03:53;;;;;;;32.33;17.30;;;;;;;2.12;79.80;96386.44;5052658;28;20228;-76
2021/03/23 07:06:20;;;;;;;33.90;19.07;;;;;;;2.23;79.93;96394.44;5070627;28;20708;-76
2021/03/23 07:09:07;;;;;;;32.90;18.27;;;;;;;2.31;79.59;96384.66;5064308;28;20304;-76
2021/03/23 07:12:09;;;;;;;32.90;17.50;;;;;;;2.35;78.83;96387.88;5057352;28;20431;-76
2021/03/23 07:14:38;;;;;;;36.20;18.97;;;;;;;2.42;78.64;96402.03;5058384;28;20208;-76
2021/03/23 07:17:11;;;;;;;33.30;18.20;;;;;;;2.52;78.48;96403.22;5050879;28;20178;-76
2021/03/23 07:19:59;;;;;;;33.67;18.13;;;;;;;2.58;78.73;96404.66;5063868;28;20727;-77
2021/03/23 07:22:39;;;;;;;32.73;19.20;;;;;;;2.51;77.74;96404.97;5066741;28;20261;-76
2021/03/23 07:25:25;;;;;;;29.57;17.37;;;;;;;2.62;77.50;96409.53;5065854;28;20208;-76
2021/03/23 07:28:08;;;;;;;29.77;16.83;;;;;;;2.67;77.74;96409.31;5046202;28;20216;-76
2021/03/23 07:30:34;;;;;;;30.30;18.30;;;;;;;2.71;77.30;96419.34;5059240;28;20243;-75
2021/03/23 07:33:02;;;;;;;32.97;20.00;;;;;;;2.67;76.75;96424.72;5062825;28;20211;-76
2021/03/23 07:35:35;;;;;;;30.80;17.90;;;;;;;2.66;77.08;96411.06;5067848;28;20182;-76
2021/03/23 07:38:10;;;;;;;29.07;17.37;;;;;;;2.80;77.16;96421.44;5069297;28;20236;-76
2021/03/23 07:40:46;;;;;;;30.60;17.37;;;;;;;2.82;76.60;96422.16;5073906;28;20184;-76
2021/03/23 07:43:32;;;;;;;32.60;18.53;;;;;;;2.92;76.60;96421.72;5060410;28;20678;-74
2021/03/23 07:46:15;;;;;;;37.77;19.87;;;;;;;2.95;76.58;96418.97;5057655;28;20247;-75
2021/03/23 07:49:14;;;;;;;45.37;25.83;;;;;;;3.05;76.47;96418.41;5053933;28;20231;-76
2021/03/23 07:51:53;;;;;;;38.20;23.07;;;;;;;3.17;76.61;96422.06;5061384;28;20309;-76
2021/03/23 07:54:31;;;;;;;32.27;19.53;;;;;;;3.33;76.29;96416.94;5062455;28;20197;-76
2021/03/23 07:57:10;;;;;;;33.77;18.57;;;;;;;3.38;75.85;96423.50;5050168;28;20178;-75
2021/03/23 07:59:51;;;;;;;34.27;19.20;;;;;;;3.53;75.31;96421.00;5054015;28;20185;-76
2021/03/23 08:02:44;;;;;;;34.03;18.87;;;;;;;3.60;75.29;96428.28;5062435;28;20196;-76
2021/03/23 08:05:46;;;;;;;35.97;19.50;;;;;;;3.48;74.76;96425.56;5073069;28;20185;-76
2021/03/23 08:08:23;;;;;;;38.20;20.17;;;;;;;3.50;75.05;96431.44;5054162;28;20200;-76
2021/03/23 08:11:08;;;;;;;33.30;19.03;;;;;;;3.36;74.92;96430.47;5065887;28;20177;-76
2021/03/23 08:13:53;;;;;;;32.33;18.20;;;;;;;3.48;75.13;96430.72;5055996;28;20205;-76
2021/03/23 08:16:46;;;;;;;36.80;20.43;;;;;;;3.72;74.51;96434.53;5069904;28;20182;-75
2021/03/23 08:19:27;;;;;;;38.73;19.70;;;;;;;3.80;74.39;96436.66;5052540;28;20549;-76
2021/03/23 08:21:52;;;;;;;32.50;18.93;;;;;;;3.84;74.00;96438.97;5055279;28;20278;-76
2021/03/23 08:24:23;;;;;;;30.67;18.30;;;;;;;4.03;74.01;96437.94;5063234;28;20174;-75
2021/03/23 08:27:07;;;;;;;32.87;18.70;;;;;;;4.11;73.48;96434.03;5064112;28;20575;-75
2021/03/23 08:29:46;;;;;;;33.20;19.33;;;;;;;4.22;73.89;96434.25;5063726;28;20188;-75
2021/03/23 08:32:37;;;;;;;32.43;18.90;;;;;;;4.34;73.06;96442.19;5072185;28;20261;-77
2021/03/23 08:35:20;;;;;;;30.20;17.67;;;;;;;4.42;72.41;96438.28;5072165;28;20189;-76
2021/03/23 08:38:04;;;;;;;30.30;17.47;;;;;;;4.43;72.30;96439.09;5065334;28;20187;-76
2021/03/23 08:40:49;;;;;;;30.33;17.87;;;;;;;4.47;71.43;96438.81;5053035;28;20259;-75
2021/03/23 08:43:34;;;;;;;31.83;18.97;;;;;;;4.57;71.45;96439.13;5061437;28;20294;-76
2021/03/23 08:46:03;;;;;;;30.23;18.30;;;;;;;4.79;72.23;96441.28;5071698;28;20528;-76
2021/03/23 08:48:55;;;;;;;30.47;18.03;;;;;;;4.99;71.15;96445.22;5055248;28;20230;-76
2021/03/23 08:51:24;;;;;;;31.03;17.90;;;;;;;4.95;71.17;96448.91;5036274;28;20260;-76
2021/03/23 08:53:59;;;;;;;36.70;20.53;;;;;;;4.90;69.71;96440.63;5051743;28;20789;-76
2021/03/23 08:56:45;;;;;;;32.47;18.30;;;;;;;4.89;69.76;96444.13;5061974;28;20217;-76
2021/03/23 08:59:35;;;;;;;29.43;17.07;;;;;;;4.91;69.45;96439.72;5052805;28;20197;-76
2021/03/23 09:02:21;;;;;;;30.73;17.80;;;;;;;4.81;68.68;96442.00;5058871;28;20301;-76
2021/03/23 09:04:57;;;;;;;29.77;17.50;;;;;;;4.93;70.23;96445.59;5069147;28;20186;-76
2021/03/23 09:07:28;;;;;;;34.23;18.47;;;;;;;5.15;70.08;96453.69;5052035;28;20178;-77
2021/03/23 09:09:54;;;;;;;30.57;17.83;;;;;;;5.46;69.36;96451.81;5062180;28;20180;-76
2021/03/23 09:12:39;;;;;;;27.53;17.37;;;;;;;5.47;68.52;96450.91;5068621;28;20208;-76
2021/03/23 09:15:08;;;;;;;28.83;18.17;;;;;;;5.45;68.41;96463.03;5053503;28;20182;-76
2021/03/23 09:17:52;;;;;;;30.80;17.13;;;;;;;5.10;68.45;96456.53;5063845;28;20254;-75
2021/03/23 09:20:33;;;;;;;24.30;15.07;;;;;;;4.98;65.76;96453.88;5053894;28;20203;-76
2021/03/23 09:23:20;;;;;;;25.33;15.67;;;;;;;4.79;66.00;96462.69;5049178;28;20661;-74
2021/03/23 09:25:56;;;;;;;25.27;15.40;;;;;;;4.93;65.83;96458.47;5049101;28;20182;-75
2021/03/23 09:28:38;;;;;;;27.27;15.47;;;;;;;4.81;66.90;96462.59;5052105;28;20181;-75
2021/03/23 09:31:35;;;;;;;26.40;16.73;;;;;;;4.90;66.20;96453.50;5056814;28;20644;-77
2021/03/23 09:34:01;;;;;;;26.90;15.70;;;;;;;4.94;67.12;96458.34;5038261;28;20226;-75
2021/03/23 09:36:27;;;;;;;26.87;16.30;;;;;;;4.82;66.98;96452.19;5053298;28;20638;-75
2021/03/23 09:38:54;;;;;;;28.57;16.50;;;;;;;4.76;67.75;96444.84;5059611;28;20603;-75
2021/03/23 09:41:19;;;;;;;27.10;15.93;;;;;;;4.90;66.75;96449.19;5051860;28;20181;-76
2021/03/23 09:43:45;;;;;;;31.83;16.93;;;;;;;5.04;67.51;96450.94;5067350;28;20522;-77
2021/03/23 09:46:36;;;;;;;25.17;15.30;;;;;;;5.00;66.60;96452.84;5069451;28;20243;-77
2021/03/23 09:49:10;;;;;;;23.63;14.33;;;;;;;5.12;66.06;96451.28;5068578;28;20197;-75
2021/03/23 09:51:48;;;;;;;25.40;14.43;;;;;;;5.47;66.07;96443.16;5065467;28;20208;-77
2021/03/23 09:54:22;;;;;;;23.57;15.87;;;;;;;5.40;64.17;96446.13;5070835;28;20213;-77
2021/03/23 09:56:48;;;;;;;26.67;16.87;;;;;;;5.31;63.62;96444.13;5055884;28;20703;-75
2021/03/23 09:59:17;;;;;;;28.47;16.83;;;;;;;5.33;64.00;96450.00;5048337;28;20243;-76
2021/03/23 10:02:01;;;;;;;24.63;14.97;;;;;;;5.43;64.82;96449.44;5060751;28;20205;-74
2021/03/23 10:04:33;;;;;;;28.93;15.53;;;;;;;5.63;63.46;96447.28;5067138;28;20184;-76
2021/03/23 10:06:59;;;;;;;27.83;16.20;;;;;;;5.69;64.01;96453.81;5064945;28;20235;-76
2021/03/23 10:09:28;;;;;;;21.60;13.47;;;;;;;5.60;62.43;96444.91;5062858;28;20193;-76
2021/03/23 10:11:54;;;;;;;18.57;11.33;;;;;;;5.54;61.92;96440.13;5038579;28;20228;-76
2021/03/23 10:14:29;;;;;;;23.47;14.10;;;;;;;5.46;62.12;96437.19;5078786;28;20212;-75
2021/03/23 10:17:27;;;;;;;25.30;15.47;;;;;;;5.26;63.01;96442.75;5059259;28;20213;-74
2021/03/23 10:20:03;;;;;;;23.07;13.13;;;;;;;5.06;61.56;96442.19;5042354;28;20209;-76
2021/03/23 10:22:37;;;;;;;22.93;13.23;;;;;;;5.05;62.60;96439.72;5072627;28;20216;-75
2021/03/23 10:25:06;;;;;;;23.30;14.67;;;;;;;5.00;62.77;96436.59;5071457;28;20181;-75
2021/03/23 10:27:37;;;;;;;27.70;14.57;;;;;;;5.18;62.02;96432.91;5044670;28;20201;-73
2021/03/23 10:30:11;;;;;;;30.30;16.10;;;;;;;5.10;63.11;96440.25;5064830;28;20718;-76
2021/03/23 10:32:38;;;;;;;25.50;14.93;;;;;;;5.18;63.20;96437.22;5044658;28;20247;-75
2021/03/23 10:35:09;;;;;;;20.17;12.63;;;;;;;4.28;61.75;96442.53;5056595;28;20173;-75
2021/03/23 10:37:34;;;;;;;19.73;13.23;;;;;;;4.29;62.73;96429.59;5056705;28;20268;-75
2021/03/23 10:39:59;;;;;;;22.73;12.77;;;;;;;4.10;63.47;96427.25;5062738;28;20264;-74
2021/03/23 10:42:27;;;;;;;24.47;14.63;;;;;;;4.41;62.75;96428.88;5065243;28;20234;-76
2021/03/23 10:45:22;;;;;;;26.60;15.07;;;;;;;4.01;64.81;96425.19;5045523;28;20174;-74
2021/03/23 10:47:59;;;;;;;29.17;16.20;;;;;;;4.46;64.68;96426.88;5055117;28;20192;-75
2021/03/23 10:50:27;;;;;;;25.63;16.03;;;;;;;4.62;64.78;96428.56;5056775;28;20838;-75
2021/03/23 10:53:12;;;;;;;26.60;16.10;;;;;;;4.38;63.64;96436.78;5063597;28;20197;-76
2021/03/23 10:55:41;;;;;;;27.23;16.00;;;;;;;4.61;62.74;96438.03;5074903;28;20178;-75
2021/03/23 10:58:15;;;;;;;24.70;14.93;;;;;;;4.34;63.69;96432.75;5054647;28;20277;-75
2021/03/23 11:00:41;;;;;;;25.77;14.27;;;;;;;4.40;62.61;96434.13;5045653;28;20182;-75
2021/03/23 11:03:19;;;;;;;25.77;14.53;;;;;;;4.73;60.97;96429.59;5054213;28;20197;-75
2021/03/23 11:05:50;;;;;;;24.10;13.53;;;;;;;4.79;61.44;96429.22;5056069;28;20177;-74
2021/03/23 11:08:16;;;;;;;26.73;14.93;;;;;;;4.73;63.05;96429.59;5057167;28;20180;-73
2021/03/23 11:10:42;;;;;;;26.07;15.07;;;;;;;4.94;62.66;96426.66;5045456;28;20174;-75
2021/03/23 11:13:07;;;;;;;30.17;15.50;;;;;;;5.32;61.67;96422.59;5056191;28;20770;-75
2021/03/23 11:15:42;;;;;;;27.00;16.37;;;;;;;4.84;62.33;96416.91;5061027;28;20197;-75
2021/03/23 11:18:30;;;;;;;24.57;15.30;;;;;;;5.56;61.72;96427.97;5063989;28;20184;-75
2021/03/23 11:20:56;;;;;;;30.30;16.93;;;;;;;5.62;60.88;96424.19;5069550;28;20189;-76
2021/03/23 11:23:47;;;;;;;28.60;16.93;;;;;;;5.86;61.48;96424.41;5068298;28;20194;-74
2021/03/23 11:26:27;;;;;;;27.40;15.17;;;;;;;6.18;60.74;96422.34;5068227;28;20716;-76
2021/03/23 11:28:54;;;;;;;27.73;15.63;;;;;;;6.06;58.74;96423.16;5059366;28;20671;-75
2021/03/23 11:31:21;;;;;;;32.00;19.70;;;;;;;6.16;57.53;96419.06;5058946;28;20196;-76
2021/03/23 11:33:46;;;;;;;32.60;16.77;;;;;;;6.18;57.09;96420.63;5047666;28;20255;-76
2021/03/23 11:36:12;;;;;;;29.57;18.23;;;;;;;6.03;58.09;96418.19;5075766;28;20185;-75
2021/03/23 11:38:38;;;;;;;50.33;26.13;;;;;;;6.18;58.58;96427.50;5064831;28;20210;-75
2021/03/23 11:41:06;;;;;;;69.20;32.47;;;;;;;6.36;59.05;96418.59;5066760;28;20661;-75
2021/03/23 11:43:47;;;;;;;45.57;23.93;;;;;;;6.28;57.88;96418.28;5067863;28;20195;-76